Terminal Aerodrome Forecast
Issued by NWS Portland, OR

Home | Current Version | Previous Version | Text Only | Print | Product List | Glossary On
Versions: 1 2 3 4 5 6 7 8 9 10 11 12 13 14 15 16 17 18 19 20 21 22 23 24 25 26 27 28 29 30 31
000
FTUS46 KPQR 202320
TAFEUG
TAF
KEUG 202320Z 2100/2124 36008KT P6SM FEW050
     FM210500 35005KT P6SM BKN045
     FM211300 VRB03KT P6SM SCT020 BKN045
     FM211700 32005KT P6SM SCT045=

USA.gov is the U.S. government's official web portal to all federal, state and local government web resources and services.